sensor_id;sensor_type;location;lat;lon;timestamp;temperature;humidity
59307;DHT22;47983;53.016;-2.260;2023-04-24T00:00:56;7.50;99.90
59307;DHT22;47983;53.016;-2.260;2023-04-24T00:03:24;7.50;99.90
59307;DHT22;47983;53.016;-2.260;2023-04-24T00:05:52;7.50;99.90
59307;DHT22;47983;53.016;-2.260;2023-04-24T00:08:19;7.50;99.90
59307;DHT22;47983;53.016;-2.260;2023-04-24T00:10:47;7.50;99.90
59307;DHT22;47983;53.016;-2.260;2023-04-24T00:13:15;7.50;99.90
59307;DHT22;47983;53.016;-2.260;2023-04-24T00:15:45;7.50;99.90
59307;DHT22;47983;53.016;-2.260;2023-04-24T00:18:13;7.50;99.90
59307;DHT22;47983;53.016;-2.260;2023-04-24T00:20:40;7.50;99.90
59307;DHT22;47983;53.016;-2.260;2023-04-24T00:23:08;7.50;99.90
59307;DHT22;47983;53.016;-2.260;2023-04-24T00:25:36;7.50;99.90
59307;DHT22;47983;53.016;-2.260;2023-04-24T00:28:03;7.60;99.90
59307;DHT22;47983;53.016;-2.260;2023-04-24T00:30:31;7.60;99.90
59307;DHT22;47983;53.016;-2.260;2023-04-24T00:32:59;7.60;99.90
59307;DHT22;47983;53.016;-2.260;2023-04-24T00:35:27;7.50;99.90
59307;DHT22;47983;53.016;-2.260;2023-04-24T00:37:54;7.60;99.90
59307;DHT22;47983;53.016;-2.260;2023-04-24T00:40:22;7.50;99.90
59307;DHT22;47983;53.016;-2.260;2023-04-24T00:42:50;7.50;99.90
59307;DHT22;47983;53.016;-2.260;2023-04-24T00:47:46;7.50;99.90
59307;DHT22;47983;53.016;-2.260;2023-04-24T00:50:16;7.50;99.90
59307;DHT22;47983;53.016;-2.260;2023-04-24T00:52:44;7.50;99.90
59307;DHT22;47983;53.016;-2.260;2023-04-24T00:55:11;7.50;99.90
59307;DHT22;47983;53.016;-2.260;2023-04-24T00:57:39;7.40;99.90
59307;DHT22;47983;53.016;-2.260;2023-04-24T01:00:07;7.40;99.90
59307;DHT22;47983;53.016;-2.260;2023-04-24T01:02:46;7.40;99.90
59307;DHT22;47983;53.016;-2.260;2023-04-24T01:05:16;7.20;99.90
59307;DHT22;47983;53.016;-2.260;2023-04-24T01:07:45;7.30;99.90
59307;DHT22;47983;53.016;-2.260;2023-04-24T01:10:15;7.30;99.90
59307;DHT22;47983;53.016;-2.260;2023-04-24T01:12:46;7.20;99.90
59307;DHT22;47983;53.016;-2.260;2023-04-24T01:15:13;7.20;99.90
59307;DHT22;47983;53.016;-2.260;2023-04-24T01:17:42;7.20;99.90
59307;DHT22;47983;53.016;-2.260;2023-04-24T01:22:38;7.20;99.90
59307;DHT22;47983;53.016;-2.260;2023-04-24T01:25:08;7.20;99.90
59307;DHT22;47983;53.016;-2.260;2023-04-24T01:27:36;7.10;99.90
59307;DHT22;47983;53.016;-2.260;2023-04-24T01:30:06;7.10;99.90
59307;DHT22;47983;53.016;-2.260;2023-04-24T01:32:34;7.10;99.90
59307;DHT22;47983;53.016;-2.260;2023-04-24T01:35:03;7.10;99.90
59307;DHT22;47983;53.016;-2.260;2023-04-24T01:37:31;7.10;99.90
59307;DHT22;47983;53.016;-2.260;2023-04-24T01:39:59;7.00;99.90
59307;DHT22;47983;53.016;-2.260;2023-04-24T01:42:27;6.90;99.90
59307;DHT22;47983;53.016;-2.260;2023-04-24T01:44:55;6.90;99.90
59307;DHT22;47983;53.016;-2.260;2023-04-24T01:47:24;6.90;99.90
59307;DHT22;47983;53.016;-2.260;2023-04-24T01:49:51;6.80;99.90
59307;DHT22;47983;53.016;-2.260;2023-04-24T01:52:19;6.70;99.90
59307;DHT22;47983;53.016;-2.260;2023-04-24T01:54:47;6.70;99.90
59307;DHT22;47983;53.016;-2.260;2023-04-24T01:57:16;6.60;99.90
59307;DHT22;47983;53.016;-2.260;2023-04-24T01:59:44;6.60;99.90
59307;DHT22;47983;53.016;-2.260;2023-04-24T02:02:12;6.60;99.90
59307;DHT22;47983;53.016;-2.260;2023-04-24T02:04:39;6.50;99.90
59307;DHT22;47983;53.016;-2.260;2023-04-24T02:07:07;6.50;99.90
59307;DHT22;47983;53.016;-2.260;2023-04-24T02:09:35;6.40;99.90
59307;DHT22;47983;53.016;-2.260;2023-04-24T02:12:03;6.40;99.90
59307;DHT22;47983;53.016;-2.260;2023-04-24T02:14:30;6.40;99.90
59307;DHT22;47983;53.016;-2.260;2023-04-24T02:16:58;6.40;99.90
59307;DHT22;47983;53.016;-2.260;2023-04-24T02:19:26;6.40;99.90
59307;DHT22;47983;53.016;-2.260;2023-04-24T02:21:53;6.40;99.90
59307;DHT22;47983;53.016;-2.260;2023-04-24T02:24:21;6.30;99.90
59307;DHT22;47983;53.016;-2.260;2023-04-24T02:26:48;6.30;99.90
59307;DHT22;47983;53.016;-2.260;2023-04-24T02:29:16;6.30;99.90
59307;DHT22;47983;53.016;-2.260;2023-04-24T02:31:43;6.30;99.90
59307;DHT22;47983;53.016;-2.260;2023-04-24T02:34:14;6.30;99.90
59307;DHT22;47983;53.016;-2.260;2023-04-24T02:36:42;6.30;99.90
59307;DHT22;47983;53.016;-2.260;2023-04-24T02:39:10;6.30;99.90
59307;DHT22;47983;53.016;-2.260;2023-04-24T02:41:39;6.30;99.90
59307;DHT22;47983;53.016;-2.260;2023-04-24T02:44:08;6.20;99.90
59307;DHT22;47983;53.016;-2.260;2023-04-24T02:46:36;6.20;99.90
59307;DHT22;47983;53.016;-2.260;2023-04-24T02:49:04;6.20;99.90
59307;DHT22;47983;53.016;-2.260;2023-04-24T02:51:31;6.20;99.90
59307;DHT22;47983;53.016;-2.260;2023-04-24T02:53:59;6.20;99.90
59307;DHT22;47983;53.016;-2.260;2023-04-24T02:56:27;6.10;99.90
59307;DHT22;47983;53.016;-2.260;2023-04-24T02:58:56;6.10;99.90
59307;DHT22;47983;53.016;-2.260;2023-04-24T03:01:24;6.10;99.90
59307;DHT22;47983;53.016;-2.260;2023-04-24T03:03:52;6.10;99.90
59307;DHT22;47983;53.016;-2.260;2023-04-24T03:06:20;6.10;99.90
59307;DHT22;47983;53.016;-2.260;2023-04-24T03:08:48;6.10;99.90
59307;DHT22;47983;53.016;-2.260;2023-04-24T03:11:15;6.10;99.90
59307;DHT22;47983;53.016;-2.260;2023-04-24T03:13:43;6.10;99.90
59307;DHT22;47983;53.016;-2.260;2023-04-24T03:16:10;6.10;99.90
59307;DHT22;47983;53.016;-2.260;2023-04-24T03:18:40;6.10;99.90
59307;DHT22;47983;53.016;-2.260;2023-04-24T03:21:08;6.10;99.90
59307;DHT22;47983;53.016;-2.260;2023-04-24T03:23:36;6.10;99.90
59307;DHT22;47983;53.016;-2.260;2023-04-24T03:26:04;6.00;99.90
59307;DHT22;47983;53.016;-2.260;2023-04-24T03:28:34;6.00;99.90
59307;DHT22;47983;53.016;-2.260;2023-04-24T03:31:04;6.00;99.90
59307;DHT22;47983;53.016;-2.260;2023-04-24T03:33:35;6.00;99.90
59307;DHT22;47983;53.016;-2.260;2023-04-24T03:36:03;6.00;99.90
59307;DHT22;47983;53.016;-2.260;2023-04-24T03:38:39;6.00;99.90
59307;DHT22;47983;53.016;-2.260;2023-04-24T03:41:19;6.00;99.90
59307;DHT22;47983;53.016;-2.260;2023-04-24T03:43:50;6.00;99.90
59307;DHT22;47983;53.016;-2.260;2023-04-24T03:46:18;6.00;99.90
59307;DHT22;47983;53.016;-2.260;2023-04-24T03:48:53;6.00;99.90
59307;DHT22;47983;53.016;-2.260;2023-04-24T03:51:26;6.00;99.90
59307;DHT22;47983;53.016;-2.260;2023-04-24T03:54:00;6.00;99.90
59307;DHT22;47983;53.016;-2.260;2023-04-24T03:56:30;6.00;99.90
59307;DHT22;47983;53.016;-2.260;2023-04-24T03:58:58;6.00;99.90
59307;DHT22;47983;53.016;-2.260;2023-04-24T04:01:25;5.90;99.90
59307;DHT22;47983;53.016;-2.260;2023-04-24T04:04:03;5.90;99.90
59307;DHT22;47983;53.016;-2.260;2023-04-24T04:06:32;5.90;99.90
59307;DHT22;47983;53.016;-2.260;2023-04-24T04:09:01;5.90;99.90
59307;DHT22;47983;53.016;-2.260;2023-04-24T04:11:29;5.90;99.90
59307;DHT22;47983;53.016;-2.260;2023-04-24T04:13:57;5.90;99.90
59307;DHT22;47983;53.016;-2.260;2023-04-24T04:16:25;5.90;99.90
59307;DHT22;47983;53.016;-2.260;2023-04-24T04:18:58;5.90;99.90
59307;DHT22;47983;53.016;-2.260;2023-04-24T04:21:26;5.90;99.90
59307;DHT22;47983;53.016;-2.260;2023-04-24T04:24:02;5.90;99.90
59307;DHT22;47983;53.016;-2.260;2023-04-24T04:26:34;5.90;99.90
59307;DHT22;47983;53.016;-2.260;2023-04-24T04:29:05;5.90;99.90
59307;DHT22;47983;53.016;-2.260;2023-04-24T04:31:37;5.90;99.90
59307;DHT22;47983;53.016;-2.260;2023-04-24T04:34:13;5.90;99.90
59307;DHT22;47983;53.016;-2.260;2023-04-24T04:36:42;6.00;99.90
59307;DHT22;47983;53.016;-2.260;2023-04-24T04:39:26;5.90;99.90
59307;DHT22;47983;53.016;-2.260;2023-04-24T04:42:21;5.90;99.90
59307;DHT22;47983;53.016;-2.260;2023-04-24T04:44:51;5.90;99.90
59307;DHT22;47983;53.016;-2.260;2023-04-24T04:47:24;5.90;99.90
59307;DHT22;47983;53.016;-2.260;2023-04-24T04:49:54;5.90;99.90
59307;DHT22;47983;53.016;-2.260;2023-04-24T04:52:27;5.80;99.90
59307;DHT22;47983;53.016;-2.260;2023-04-24T04:55:04;5.80;99.90
59307;DHT22;47983;53.016;-2.260;2023-04-24T04:57:52;5.90;99.90
59307;DHT22;47983;53.016;-2.260;2023-04-24T05:00:22;5.80;99.90
59307;DHT22;47983;53.016;-2.260;2023-04-24T05:02:53;5.80;99.90
59307;DHT22;47983;53.016;-2.260;2023-04-24T05:05:25;5.80;99.90
59307;DHT22;47983;53.016;-2.260;2023-04-24T05:07:53;5.90;99.90
59307;DHT22;47983;53.016;-2.260;2023-04-24T05:10:21;5.80;99.90
59307;DHT22;47983;53.016;-2.260;2023-04-24T05:12:52;5.80;99.90
59307;DHT22;47983;53.016;-2.260;2023-04-24T05:15:20;5.80;99.90
59307;DHT22;47983;53.016;-2.260;2023-04-24T05:17:48;5.90;99.90
59307;DHT22;47983;53.016;-2.260;2023-04-24T05:20:15;5.80;99.90
59307;DHT22;47983;53.016;-2.260;2023-04-24T05:22:46;5.90;99.90
59307;DHT22;47983;53.016;-2.260;2023-04-24T05:25:15;5.80;99.90
59307;DHT22;47983;53.016;-2.260;2023-04-24T05:27:56;5.90;99.90
59307;DHT22;47983;53.016;-2.260;2023-04-24T05:30:24;5.90;99.90
59307;DHT22;47983;53.016;-2.260;2023-04-24T05:32:52;5.90;99.90
59307;DHT22;47983;53.016;-2.260;2023-04-24T05:35:19;5.90;99.90
59307;DHT22;47983;53.016;-2.260;2023-04-24T05:37:47;6.10;99.90
59307;DHT22;47983;53.016;-2.260;2023-04-24T05:40:18;5.90;99.90
59307;DHT22;47983;53.016;-2.260;2023-04-24T05:42:46;5.90;99.90
59307;DHT22;47983;53.016;-2.260;2023-04-24T05:45:14;6.00;99.90
59307;DHT22;47983;53.016;-2.260;2023-04-24T05:47:47;5.90;99.90
59307;DHT22;47983;53.016;-2.260;2023-04-24T05:50:15;5.90;99.90
59307;DHT22;47983;53.016;-2.260;2023-04-24T05:52:42;6.00;99.90
59307;DHT22;47983;53.016;-2.260;2023-04-24T05:55:25;6.00;99.90
59307;DHT22;47983;53.016;-2.260;2023-04-24T05:57:53;6.00;99.90
59307;DHT22;47983;53.016;-2.260;2023-04-24T06:00:21;6.10;99.90
59307;DHT22;47983;53.016;-2.260;2023-04-24T06:03:00;6.10;99.90
59307;DHT22;47983;53.016;-2.260;2023-04-24T06:05:29;6.20;99.90
59307;DHT22;47983;53.016;-2.260;2023-04-24T06:07:57;6.10;99.90
59307;DHT22;47983;53.016;-2.260;2023-04-24T06:10:29;6.20;99.90
59307;DHT22;47983;53.016;-2.260;2023-04-24T06:12:57;6.20;99.90
59307;DHT22;47983;53.016;-2.260;2023-04-24T06:15:30;5.30;99.90
59307;DHT22;47983;53.016;-2.260;2023-04-24T06:18:04;6.30;99.90
59307;DHT22;47983;53.016;-2.260;2023-04-24T06:20:32;6.40;99.90
59307;DHT22;47983;53.016;-2.260;2023-04-24T06:23:27;6.40;99.90
59307;DHT22;47983;53.016;-2.260;2023-04-24T06:25:54;6.40;99.90
59307;DHT22;47983;53.016;-2.260;2023-04-24T06:28:22;6.40;99.90
59307;DHT22;47983;53.016;-2.260;2023-04-24T06:30:52;6.50;99.90
59307;DHT22;47983;53.016;-2.260;2023-04-24T06:33:19;6.50;99.90
59307;DHT22;47983;53.016;-2.260;2023-04-24T06:35:50;6.60;99.90
59307;DHT22;47983;53.016;-2.260;2023-04-24T06:38:18;6.60;99.90
59307;DHT22;47983;53.016;-2.260;2023-04-24T06:40:45;6.60;99.90
59307;DHT22;47983;53.016;-2.260;2023-04-24T06:43:13;6.70;99.90
59307;DHT22;47983;53.016;-2.260;2023-04-24T06:45:42;6.70;99.90
59307;DHT22;47983;53.016;-2.260;2023-04-24T06:48:11;6.80;99.90
59307;DHT22;47983;53.016;-2.260;2023-04-24T06:50:39;6.80;99.90
59307;DHT22;47983;53.016;-2.260;2023-04-24T06:53:06;6.70;99.90
59307;DHT22;47983;53.016;-2.260;2023-04-24T06:55:35;6.80;99.90
59307;DHT22;47983;53.016;-2.260;2023-04-24T06:58:03;6.80;99.90
59307;DHT22;47983;53.016;-2.260;2023-04-24T07:00:31;6.80;99.90
59307;DHT22;47983;53.016;-2.260;2023-04-24T07:02:59;6.80;99.90
59307;DHT22;47983;53.016;-2.260;2023-04-24T07:05:27;6.90;99.90
59307;DHT22;47983;53.016;-2.260;2023-04-24T07:07:55;6.90;99.90
59307;DHT22;47983;53.016;-2.260;2023-04-24T07:10:25;7.00;99.90
59307;DHT22;47983;53.016;-2.260;2023-04-24T07:12:56;7.10;99.90
59307;DHT22;47983;53.016;-2.260;2023-04-24T07:15:24;7.10;99.90
59307;DHT22;47983;53.016;-2.260;2023-04-24T07:17:52;7.10;99.90
59307;DHT22;47983;53.016;-2.260;2023-04-24T07:20:19;7.20;99.90
59307;DHT22;47983;53.016;-2.260;2023-04-24T07:22:47;7.20;99.90
59307;DHT22;47983;53.016;-2.260;2023-04-24T07:25:17;7.20;99.90
59307;DHT22;47983;53.016;-2.260;2023-04-24T07:27:45;7.30;99.90
59307;DHT22;47983;53.016;-2.260;2023-04-24T07:30:13;7.30;99.90
59307;DHT22;47983;53.016;-2.260;2023-04-24T07:32:41;7.30;99.90
59307;DHT22;47983;53.016;-2.260;2023-04-24T07:35:09;7.40;99.90
59307;DHT22;47983;53.016;-2.260;2023-04-24T07:37:37;7.50;99.90
59307;DHT22;47983;53.016;-2.260;2023-04-24T07:40:05;7.50;99.90
59307;DHT22;47983;53.016;-2.260;2023-04-24T07:42:33;7.60;99.90
59307;DHT22;47983;53.016;-2.260;2023-04-24T07:45:02;7.60;99.90
59307;DHT22;47983;53.016;-2.260;2023-04-24T07:47:31;7.70;99.90
59307;DHT22;47983;53.016;-2.260;2023-04-24T07:49:59;7.80;99.90
59307;DHT22;47983;53.016;-2.260;2023-04-24T07:52:27;7.80;99.90
59307;DHT22;47983;53.016;-2.260;2023-04-24T07:54:55;7.80;99.90
59307;DHT22;47983;53.016;-2.260;2023-04-24T07:57:26;7.80;99.90
59307;DHT22;47983;53.016;-2.260;2023-04-24T07:59:55;7.80;99.90
59307;DHT22;47983;53.016;-2.260;2023-04-24T08:02:25;7.90;99.90
59307;DHT22;47983;53.016;-2.260;2023-04-24T08:04:54;7.90;99.90
59307;DHT22;47983;53.016;-2.260;2023-04-24T08:07:24;8.00;99.90
59307;DHT22;47983;53.016;-2.260;2023-04-24T08:09:51;8.10;99.90
59307;DHT22;47983;53.016;-2.260;2023-04-24T08:12:19;8.20;99.90
59307;DHT22;47983;53.016;-2.260;2023-04-24T08:14:47;8.40;99.90
59307;DHT22;47983;53.016;-2.260;2023-04-24T08:17:16;8.40;99.90
59307;DHT22;47983;53.016;-2.260;2023-04-24T08:19:46;8.50;99.90
59307;DHT22;47983;53.016;-2.260;2023-04-24T08:22:18;8.50;99.90
59307;DHT22;47983;53.016;-2.260;2023-04-24T08:24:46;8.60;99.90
59307;DHT22;47983;53.016;-2.260;2023-04-24T08:27:13;8.60;99.90
59307;DHT22;47983;53.016;-2.260;2023-04-24T08:29:44;8.70;99.90
59307;DHT22;47983;53.016;-2.260;2023-04-24T08:32:12;8.70;99.90
59307;DHT22;47983;53.016;-2.260;2023-04-24T08:34:40;8.70;99.90
59307;DHT22;47983;53.016;-2.260;2023-04-24T08:37:07;8.70;99.90
59307;DHT22;47983;53.016;-2.260;2023-04-24T08:39:36;8.70;99.90
59307;DHT22;47983;53.016;-2.260;2023-04-24T08:42:05;8.80;99.90
59307;DHT22;47983;53.016;-2.260;2023-04-24T08:44:36;8.80;99.90
59307;DHT22;47983;53.016;-2.260;2023-04-24T08:47:04;8.80;99.90
59307;DHT22;47983;53.016;-2.260;2023-04-24T08:49:33;8.90;99.90
59307;DHT22;47983;53.016;-2.260;2023-04-24T08:52:02;8.90;99.90
59307;DHT22;47983;53.016;-2.260;2023-04-24T08:54:31;9.00;99.90
59307;DHT22;47983;53.016;-2.260;2023-04-24T08:57:00;9.00;99.90
59307;DHT22;47983;53.016;-2.260;2023-04-24T08:59:30;9.00;99.90
59307;DHT22;47983;53.016;-2.260;2023-04-24T09:01:58;9.00;99.90
59307;DHT22;47983;53.016;-2.260;2023-04-24T09:04:25;9.10;99.90
59307;DHT22;47983;53.016;-2.260;2023-04-24T09:06:57;9.10;99.90
59307;DHT22;47983;53.016;-2.260;2023-04-24T09:09:25;9.20;99.90
59307;DHT22;47983;53.016;-2.260;2023-04-24T09:11:53;9.30;99.90
59307;DHT22;47983;53.016;-2.260;2023-04-24T09:14:23;9.40;99.90
59307;DHT22;47983;53.016;-2.260;2023-04-24T09:16:51;9.40;99.90
59307;DHT22;47983;53.016;-2.260;2023-04-24T09:19:19;9.50;99.90
59307;DHT22;47983;53.016;-2.260;2023-04-24T09:21:49;9.50;99.90
59307;DHT22;47983;53.016;-2.260;2023-04-24T09:24:21;9.60;99.90
59307;DHT22;47983;53.016;-2.260;2023-04-24T09:26:58;9.70;99.90
59307;DHT22;47983;53.016;-2.260;2023-04-24T09:29:26;9.70;99.90
59307;DHT22;47983;53.016;-2.260;2023-04-24T09:31:54;9.80;99.90
59307;DHT22;47983;53.016;-2.260;2023-04-24T09:34:23;9.90;99.90
59307;DHT22;47983;53.016;-2.260;2023-04-24T09:36:51;10.00;99.90
59307;DHT22;47983;53.016;-2.260;2023-04-24T09:39:19;10.00;99.90
59307;DHT22;47983;53.016;-2.260;2023-04-24T09:44:19;10.30;99.90
59307;DHT22;47983;53.016;-2.260;2023-04-24T09:46:51;10.30;99.90
59307;DHT22;47983;53.016;-2.260;2023-04-24T09:49:30;10.40;99.90
59307;DHT22;47983;53.016;-2.260;2023-04-24T09:52:08;10.50;99.90
59307;DHT22;47983;53.016;-2.260;2023-04-24T09:54:37;10.60;99.90
59307;DHT22;47983;53.016;-2.260;2023-04-24T09:57:07;10.70;99.90
59307;DHT22;47983;53.016;-2.260;2023-04-24T09:59:42;10.80;99.90
59307;DHT22;47983;53.016;-2.260;2023-04-24T10:02:19;10.90;99.90
59307;DHT22;47983;53.016;-2.260;2023-04-24T10:04:57;11.10;99.90
59307;DHT22;47983;53.016;-2.260;2023-04-24T10:07:27;11.20;99.90
59307;DHT22;47983;53.016;-2.260;2023-04-24T10:09:55;11.40;99.90
59307;DHT22;47983;53.016;-2.260;2023-04-24T10:12:23;11.50;99.90
59307;DHT22;47983;53.016;-2.260;2023-04-24T10:14:52;11.60;99.90
59307;DHT22;47983;53.016;-2.260;2023-04-24T10:17:21;11.80;99.90
59307;DHT22;47983;53.016;-2.260;2023-04-24T10:19:49;11.80;99.90
59307;DHT22;47983;53.016;-2.260;2023-04-24T10:22:18;12.00;99.90
59307;DHT22;47983;53.016;-2.260;2023-04-24T10:24:47;12.10;99.90
59307;DHT22;47983;53.016;-2.260;2023-04-24T10:27:16;12.10;99.90
59307;DHT22;47983;53.016;-2.260;2023-04-24T10:29:45;12.10;99.90
59307;DHT22;47983;53.016;-2.260;2023-04-24T10:34:43;11.90;99.90
59307;DHT22;47983;53.016;-2.260;2023-04-24T10:37:14;11.90;99.90
59307;DHT22;47983;53.016;-2.260;2023-04-24T10:39:42;11.90;99.90
59307;DHT22;47983;53.016;-2.260;2023-04-24T10:42:15;11.80;99.90
59307;DHT22;47983;53.016;-2.260;2023-04-24T10:44:43;11.80;99.90
59307;DHT22;47983;53.016;-2.260;2023-04-24T10:47:14;11.70;99.90
59307;DHT22;47983;53.016;-2.260;2023-04-24T10:49:42;11.60;99.90
59307;DHT22;47983;53.016;-2.260;2023-04-24T10:52:16;11.70;99.90
59307;DHT22;47983;53.016;-2.260;2023-04-24T10:54:45;12.00;99.90
59307;DHT22;47983;53.016;-2.260;2023-04-24T11:02:38;12.20;99.90
59307;DHT22;47983;53.016;-2.260;2023-04-24T11:05:07;12.50;99.90
59307;DHT22;47983;53.016;-2.260;2023-04-24T11:08:12;12.90;99.90
59307;DHT22;47983;53.016;-2.260;2023-04-24T11:10:47;13.30;99.90
59307;DHT22;47983;53.016;-2.260;2023-04-24T11:13:22;13.50;99.90
59307;DHT22;47983;53.016;-2.260;2023-04-24T11:16:31;13.50;99.90
59307;DHT22;47983;53.016;-2.260;2023-04-24T11:22:02;13.20;99.90
59307;DHT22;47983;53.016;-2.260;2023-04-24T11:24:31;13.10;99.90
59307;DHT22;47983;53.016;-2.260;2023-04-24T11:32:26;13.00;99.90
59307;DHT22;47983;53.016;-2.260;2023-04-24T11:35:03;13.00;99.90
59307;DHT22;47983;53.016;-2.260;2023-04-24T11:37:39;13.00;99.90
59307;DHT22;47983;53.016;-2.260;2023-04-24T11:40:10;12.80;99.90
59307;DHT22;47983;53.016;-2.260;2023-04-24T11:42:41;12.70;99.90
59307;DHT22;47983;53.016;-2.260;2023-04-24T11:47:44;12.40;99.90
59307;DHT22;47983;53.016;-2.260;2023-04-24T11:50:14;12.30;99.90
59307;DHT22;47983;53.016;-2.260;2023-04-24T11:52:44;12.10;99.90
59307;DHT22;47983;53.016;-2.260;2023-04-24T12:00:19;12.00;99.90
59307;DHT22;47983;53.016;-2.260;2023-04-24T12:02:48;12.10;99.90
59307;DHT22;47983;53.016;-2.260;2023-04-24T12:05:26;12.10;99.90
59307;DHT22;47983;53.016;-2.260;2023-04-24T12:07:54;12.20;99.90
59307;DHT22;47983;53.016;-2.260;2023-04-24T12:10:24;12.20;99.90
59307;DHT22;47983;53.016;-2.260;2023-04-24T12:12:53;12.30;99.90
59307;DHT22;47983;53.016;-2.260;2023-04-24T12:15:21;12.30;99.90
59307;DHT22;47983;53.016;-2.260;2023-04-24T12:17:51;12.30;99.90
59307;DHT22;47983;53.016;-2.260;2023-04-24T12:20:32;12.40;99.90
59307;DHT22;47983;53.016;-2.260;2023-04-24T12:23:01;12.30;99.90
59307;DHT22;47983;53.016;-2.260;2023-04-24T12:25:33;12.30;99.90
59307;DHT22;47983;53.016;-2.260;2023-04-24T12:30:47;12.40;99.90
59307;DHT22;47983;53.016;-2.260;2023-04-24T12:33:20;12.40;99.90
59307;DHT22;47983;53.016;-2.260;2023-04-24T12:35:51;12.30;99.90
59307;DHT22;47983;53.016;-2.260;2023-04-24T12:38:22;12.30;99.90
59307;DHT22;47983;53.016;-2.260;2023-04-24T12:41:07;12.20;99.90
59307;DHT22;47983;53.016;-2.260;2023-04-24T12:43:36;12.10;99.90
59307;DHT22;47983;53.016;-2.260;2023-04-24T12:46:04;12.00;99.90
59307;DHT22;47983;53.016;-2.260;2023-04-24T12:48:32;12.00;99.90
59307;DHT22;47983;53.016;-2.260;2023-04-24T12:51:00;11.90;99.90
59307;DHT22;47983;53.016;-2.260;2023-04-24T12:53:29;11.80;99.90
59307;DHT22;47983;53.016;-2.260;2023-04-24T12:55:58;11.80;99.90
59307;DHT22;47983;53.016;-2.260;2023-04-24T12:58:26;11.80;99.90
59307;DHT22;47983;53.016;-2.260;2023-04-24T13:00:53;11.70;99.90
59307;DHT22;47983;53.016;-2.260;2023-04-24T13:03:21;11.60;99.90
59307;DHT22;47983;53.016;-2.260;2023-04-24T13:05:50;11.60;99.90
59307;DHT22;47983;53.016;-2.260;2023-04-24T13:08:18;11.60;99.90
59307;DHT22;47983;53.016;-2.260;2023-04-24T13:10:46;11.60;99.90
59307;DHT22;47983;53.016;-2.260;2023-04-24T13:13:13;11.60;99.90
59307;DHT22;47983;53.016;-2.260;2023-04-24T13:15:41;11.70;99.90
59307;DHT22;47983;53.016;-2.260;2023-04-24T13:18:09;12.00;99.90
59307;DHT22;47983;53.016;-2.260;2023-04-24T13:20:37;12.00;99.90
59307;DHT22;47983;53.016;-2.260;2023-04-24T13:23:04;12.10;99.90
59307;DHT22;47983;53.016;-2.260;2023-04-24T13:25:35;12.30;99.90
59307;DHT22;47983;53.016;-2.260;2023-04-24T13:28:03;12.40;99.90
59307;DHT22;47983;53.016;-2.260;2023-04-24T13:30:31;12.60;99.40
59307;DHT22;47983;53.016;-2.260;2023-04-24T13:32:59;12.60;99.90
59307;DHT22;47983;53.016;-2.260;2023-04-24T13:35:27;12.60;99.90
59307;DHT22;47983;53.016;-2.260;2023-04-24T13:37:55;12.70;99.90
59307;DHT22;47983;53.016;-2.260;2023-04-24T13:40:22;12.70;99.90
59307;DHT22;47983;53.016;-2.260;2023-04-24T13:42:50;12.70;99.90
59307;DHT22;47983;53.016;-2.260;2023-04-24T13:45:18;12.80;99.90
59307;DHT22;47983;53.016;-2.260;2023-04-24T13:47:52;12.90;99.90
59307;DHT22;47983;53.016;-2.260;2023-04-24T13:50:21;12.90;99.90
59307;DHT22;47983;53.016;-2.260;2023-04-24T13:52:49;13.00;99.90
59307;DHT22;47983;53.016;-2.260;2023-04-24T13:55:17;13.10;99.90
59307;DHT22;47983;53.016;-2.260;2023-04-24T13:57:44;13.50;99.90
59307;DHT22;47983;53.016;-2.260;2023-04-24T14:00:12;13.50;99.90
59307;DHT22;47983;53.016;-2.260;2023-04-24T14:02:40;13.70;99.90
59307;DHT22;47983;53.016;-2.260;2023-04-24T14:05:08;14.10;99.90
59307;DHT22;47983;53.016;-2.260;2023-04-24T14:07:38;14.60;99.90
59307;DHT22;47983;53.016;-2.260;2023-04-24T14:10:07;14.70;96.90
59307;DHT22;47983;53.016;-2.260;2023-04-24T14:12:35;14.50;95.70
59307;DHT22;47983;53.016;-2.260;2023-04-24T14:15:03;14.50;95.90
59307;DHT22;47983;53.016;-2.260;2023-04-24T14:17:32;14.30;95.40
59307;DHT22;47983;53.016;-2.260;2023-04-24T14:19:59;13.90;94.60
59307;DHT22;47983;53.016;-2.260;2023-04-24T14:22:29;13.60;94.80
59307;DHT22;47983;53.016;-2.260;2023-04-24T14:24:56;13.20;95.60
59307;DHT22;47983;53.016;-2.260;2023-04-24T14:27:25;12.90;96.10
59307;DHT22;47983;53.016;-2.260;2023-04-24T14:29:53;12.70;96.80
59307;DHT22;47983;53.016;-2.260;2023-04-24T14:32:21;12.20;97.40
59307;DHT22;47983;53.016;-2.260;2023-04-24T14:37:17;12.10;98.40
59307;DHT22;47983;53.016;-2.260;2023-04-24T14:39:45;11.90;98.80
59307;DHT22;47983;53.016;-2.260;2023-04-24T14:42:33;11.90;99.80
59307;DHT22;47983;53.016;-2.260;2023-04-24T14:45:01;11.80;99.40
59307;DHT22;47983;53.016;-2.260;2023-04-24T14:47:28;11.80;99.90
59307;DHT22;47983;53.016;-2.260;2023-04-24T14:49:56;11.70;99.90
59307;DHT22;47983;53.016;-2.260;2023-04-24T14:52:24;11.70;99.90
59307;DHT22;47983;53.016;-2.260;2023-04-24T14:54:52;11.70;99.90
59307;DHT22;47983;53.016;-2.260;2023-04-24T14:57:19;11.60;99.90
59307;DHT22;47983;53.016;-2.260;2023-04-24T14:59:47;11.50;99.90
59307;DHT22;47983;53.016;-2.260;2023-04-24T15:02:15;11.50;99.90
59307;DHT22;47983;53.016;-2.260;2023-04-24T15:04:45;11.50;99.90
59307;DHT22;47983;53.016;-2.260;2023-04-24T15:07:13;11.40;99.90
59307;DHT22;47983;53.016;-2.260;2023-04-24T15:09:43;11.40;99.90
59307;DHT22;47983;53.016;-2.260;2023-04-24T15:12:13;11.40;99.90
59307;DHT22;47983;53.016;-2.260;2023-04-24T15:14:40;11.40;99.90
59307;DHT22;47983;53.016;-2.260;2023-04-24T15:17:08;11.40;99.90
59307;DHT22;47983;53.016;-2.260;2023-04-24T15:19:36;11.40;99.90
59307;DHT22;47983;53.016;-2.260;2023-04-24T15:22:04;11.40;99.90
59307;DHT22;47983;53.016;-2.260;2023-04-24T15:27:00;11.40;99.90
59307;DHT22;47983;53.016;-2.260;2023-04-24T15:29:29;11.40;99.90
59307;DHT22;47983;53.016;-2.260;2023-04-24T15:31:57;11.40;99.90
59307;DHT22;47983;53.016;-2.260;2023-04-24T15:34:25;11.50;99.90
59307;DHT22;47983;53.016;-2.260;2023-04-24T15:36:53;11.50;99.90
59307;DHT22;47983;53.016;-2.260;2023-04-24T15:39:22;11.60;99.90
59307;DHT22;47983;53.016;-2.260;2023-04-24T15:41:52;11.50;99.90
59307;DHT22;47983;53.016;-2.260;2023-04-24T15:44:23;11.50;99.90
59307;DHT22;47983;53.016;-2.260;2023-04-24T15:46:51;11.60;99.90
59307;DHT22;47983;53.016;-2.260;2023-04-24T15:49:18;11.60;99.90
59307;DHT22;47983;53.016;-2.260;2023-04-24T15:51:46;11.50;99.90
59307;DHT22;47983;53.016;-2.260;2023-04-24T15:54:13;11.60;99.90
59307;DHT22;47983;53.016;-2.260;2023-04-24T15:56:41;11.50;99.90
59307;DHT22;47983;53.016;-2.260;2023-04-24T15:59:10;11.40;99.90
59307;DHT22;47983;53.016;-2.260;2023-04-24T16:01:41;11.20;99.90
59307;DHT22;47983;53.016;-2.260;2023-04-24T16:04:09;11.10;99.90
59307;DHT22;47983;53.016;-2.260;2023-04-24T16:06:37;10.90;99.90
59307;DHT22;47983;53.016;-2.260;2023-04-24T16:09:05;10.70;99.90
59307;DHT22;47983;53.016;-2.260;2023-04-24T16:11:33;10.60;99.90
59307;DHT22;47983;53.016;-2.260;2023-04-24T16:14:03;10.60;99.90
59307;DHT22;47983;53.016;-2.260;2023-04-24T16:16:30;10.50;99.90
59307;DHT22;47983;53.016;-2.260;2023-04-24T16:18:58;10.50;99.90